DHL399Y LIRF-LIPZ
Flight info
| Callsign | DHL399Y |
|---|---|
| Flight time | 0h 46m |
| Altitude | 30000 |
| Route | SOSIV5AXSOVAN1E/25 SOVAN DCT AMTEL DCT NUKNI DCT BIKTU DCT PELEG DCT SUKOM Q125 NIMUM Z43 OTGIG |
| Aircraft | B789/H-SDE1E2E3FGHIJ2J3J4J5M1RWXY/LB1D1 |
Departure
| Time | 2026-05-06 16:43 |
|---|---|
| Airport | Rome–Fiumicino Leonardo da Vinci International Airport (LIRF) |
Arrival
| Time | 2026-05-06 17:29 |
|---|---|
| Airport | Venice Marco Polo Airport (LIPZ) |
| Time | Latitude | Longitude | Altitude | Speed | Heading |
|---|---|---|---|---|---|
| 2026-05-06 16:03 | 41.79811 | 12.24819 | 19 ft | 0 kts | 250° |
| 2026-05-06 16:29 | 41.79814 | 12.24830 | 19 ft | 4 kts | 250° |
| 2026-05-06 16:29 | 41.79823 | 12.24863 | 20 ft | 4 kts | 261° |
| 2026-05-06 16:29 | 41.79819 | 12.24893 | 22 ft | 4 kts | 315° |
| 2026-05-06 16:29 | 41.79798 | 12.24911 | 23 ft | 2 kts | 339° |
| 2026-05-06 16:30 | 41.79796 | 12.24912 | 20 ft | 0 kts | 340° |
| 2026-05-06 16:34 | 41.79798 | 12.24912 | 23 ft | 2 kts | 340° |
| 2026-05-06 16:34 | 41.79848 | 12.24887 | 22 ft | 14 kts | 340° |
| 2026-05-06 16:34 | 41.79964 | 12.24830 | 19 ft | 20 kts | 339° |
| 2026-05-06 16:34 | 41.80115 | 12.24772 | 19 ft | 25 kts | 359° |
| 2026-05-06 16:35 | 41.80210 | 12.24894 | 19 ft | 19 kts | 90° |
| 2026-05-06 16:35 | 41.80209 | 12.25084 | 19 ft | 22 kts | 77° |
| 2026-05-06 16:35 | 41.80266 | 12.25293 | 19 ft | 25 kts | 69° |
| 2026-05-06 16:35 | 41.80331 | 12.25525 | 23 ft | 28 kts | 69° |
| 2026-05-06 16:36 | 41.80403 | 12.25787 | 22 ft | 33 kts | 70° |
| 2026-05-06 16:36 | 41.80483 | 12.26078 | 21 ft | 33 kts | 69° |
| 2026-05-06 16:36 | 41.80561 | 12.26359 | 26 ft | 32 kts | 70° |
| 2026-05-06 16:36 | 41.80640 | 12.26643 | 22 ft | 32 kts | 69° |
| 2026-05-06 16:37 | 41.80717 | 12.26927 | 19 ft | 30 kts | 70° |
| 2026-05-06 16:37 | 41.80781 | 12.27127 | 18 ft | 17 kts | 44° |
| 2026-05-06 16:37 | 41.80859 | 12.27120 | 18 ft | 13 kts | 340° |
| 2026-05-06 16:37 | 41.80898 | 12.27100 | 18 ft | 0 kts | 339° |
| 2026-05-06 16:41 | 41.80935 | 12.27081 | 19 ft | 12 kts | 338° |
| 2026-05-06 16:41 | 41.80975 | 12.27011 | 19 ft | 11 kts | 273° |
| 2026-05-06 16:41 | 41.80958 | 12.26929 | 18 ft | 0 kts | 250° |
| 2026-05-06 16:42 | 41.80956 | 12.26921 | 18 ft | 6 kts | 250° |
| 2026-05-06 16:42 | 41.80861 | 12.26575 | 26 ft | 79 kts | 250° |
| 2026-05-06 16:43 | 41.80581 | 12.25567 | 26 ft | 151 kts | 249° |
| 2026-05-06 16:43 | 41.80206 | 12.24052 | 458 ft | 177 kts | 254° |
| 2026-05-06 16:43 | 41.79818 | 12.22502 | 1292 ft | 177 kts | 242° |
| 2026-05-06 16:43 | 41.79325 | 12.20979 | 2075 ft | 181 kts | 243° |
| 2026-05-06 16:44 | 41.79247 | 12.19192 | 2426 ft | 211 kts | 281° |
| 2026-05-06 16:44 | 41.80027 | 12.17478 | 3068 ft | 220 kts | 304° |
| 2026-05-06 16:44 | 41.80997 | 12.15940 | 4002 ft | 218 kts | 307° |
| 2026-05-06 16:44 | 41.81960 | 12.14368 | 4939 ft | 221 kts | 305° |
| 2026-05-06 16:45 | 41.82932 | 12.12723 | 5829 ft | 224 kts | 303° |
| 2026-05-06 16:45 | 41.83897 | 12.11096 | 6718 ft | 227 kts | 307° |
| 2026-05-06 16:45 | 41.85266 | 12.09910 | 7207 ft | 249 kts | 340° |
| 2026-05-06 16:45 | 41.86993 | 12.09352 | 7707 ft | 263 kts | 343° |
| 2026-05-06 16:46 | 41.88809 | 12.08724 | 8244 ft | 276 kts | 342° |
| 2026-05-06 16:46 | 41.90692 | 12.08008 | 8809 ft | 287 kts | 341° |
| 2026-05-06 16:46 | 41.92631 | 12.07268 | 9561 ft | 293 kts | 341° |
| 2026-05-06 16:46 | 41.94613 | 12.06530 | 10273 ft | 298 kts | 342° |
| 2026-05-06 16:47 | 41.96699 | 12.05980 | 10624 ft | 317 kts | 354° |
| 2026-05-06 16:47 | 41.98949 | 12.05826 | 11089 ft | 331 kts | 354° |
| 2026-05-06 16:47 | 42.01287 | 12.05600 | 11533 ft | 345 kts | 353° |
| 2026-05-06 16:47 | 42.03698 | 12.05338 | 11974 ft | 358 kts | 353° |
| 2026-05-06 16:48 | 42.06208 | 12.05086 | 12608 ft | 366 kts | 353° |
| 2026-05-06 16:48 | 42.08756 | 12.04848 | 13342 ft | 370 kts | 354° |
| 2026-05-06 16:48 | 42.11348 | 12.04601 | 14033 ft | 375 kts | 353° |
| 2026-05-06 16:48 | 42.13959 | 12.04342 | 14649 ft | 379 kts | 353° |
| 2026-05-06 16:49 | 42.16615 | 12.04078 | 15273 ft | 384 kts | 353° |
| 2026-05-06 16:49 | 42.19285 | 12.03709 | 15794 ft | 389 kts | 347° |
| 2026-05-06 16:49 | 42.21971 | 12.03054 | 16387 ft | 394 kts | 348° |
| 2026-05-06 16:49 | 42.24688 | 12.02470 | 17003 ft | 398 kts | 348° |
| 2026-05-06 16:50 | 42.27410 | 12.01887 | 17587 ft | 403 kts | 348° |
| 2026-05-06 16:50 | 42.30185 | 12.01254 | 18196 ft | 408 kts | 347° |
| 2026-05-06 16:50 | 42.33005 | 12.00601 | 18717 ft | 412 kts | 347° |
| 2026-05-06 16:50 | 42.35839 | 11.99963 | 19282 ft | 415 kts | 347° |
| 2026-05-06 16:51 | 42.38692 | 11.99329 | 19840 ft | 418 kts | 347° |
| 2026-05-06 16:51 | 42.41573 | 11.98682 | 20432 ft | 419 kts | 346° |
| 2026-05-06 16:51 | 42.44452 | 11.98029 | 21007 ft | 421 kts | 346° |
| 2026-05-06 16:51 | 42.47360 | 11.97369 | 21553 ft | 424 kts | 345° |
| 2026-05-06 16:52 | 42.50273 | 11.96712 | 22096 ft | 426 kts | 345° |
| 2026-05-06 16:52 | 42.53221 | 11.96047 | 22606 ft | 429 kts | 345° |
| 2026-05-06 16:52 | 42.56128 | 11.95389 | 23106 ft | 431 kts | 345° |
| 2026-05-06 16:52 | 42.59101 | 11.94714 | 23592 ft | 434 kts | 345° |
| 2026-05-06 16:53 | 42.62081 | 11.94037 | 23992 ft | 437 kts | 345° |
| 2026-05-06 16:53 | 42.65090 | 11.93354 | 24364 ft | 440 kts | 344° |
| 2026-05-06 16:53 | 42.68018 | 11.92689 | 24733 ft | 443 kts | 344° |
| 2026-05-06 16:54 | 42.68300 | 11.92625 | 24772 ft | 443 kts | 344° |
| 2026-05-06 16:54 | 42.71354 | 11.91930 | 25140 ft | 446 kts | 344° |
| 2026-05-06 16:54 | 42.74388 | 11.91239 | 25484 ft | 449 kts | 344° |
| 2026-05-06 16:54 | 42.77479 | 11.90534 | 25835 ft | 453 kts | 344° |
| 2026-05-06 16:55 | 42.80596 | 11.89822 | 26235 ft | 455 kts | 344° |
| 2026-05-06 16:55 | 42.83646 | 11.88788 | 26564 ft | 448 kts | 333° |
| 2026-05-06 16:55 | 42.86448 | 11.87022 | 26999 ft | 440 kts | 324° |
| 2026-05-06 16:55 | 42.89140 | 11.85036 | 27465 ft | 440 kts | 324° |
| 2026-05-06 16:56 | 42.91831 | 11.83055 | 27953 ft | 440 kts | 324° |
| 2026-05-06 16:56 | 42.94488 | 11.81118 | 28409 ft | 439 kts | 324° |
| 2026-05-06 16:56 | 42.97191 | 11.79149 | 28873 ft | 439 kts | 324° |
| 2026-05-06 16:56 | 42.99879 | 11.77177 | 29361 ft | 438 kts | 323° |
| 2026-05-06 16:57 | 43.02558 | 11.75204 | 29758 ft | 440 kts | 323° |
| 2026-05-06 16:57 | 43.05274 | 11.73207 | 29931 ft | 443 kts | 323° |
| 2026-05-06 16:57 | 43.07974 | 11.71229 | 29925 ft | 438 kts | 323° |
| 2026-05-06 16:58 | 43.13307 | 11.67303 | 29933 ft | 434 kts | 323° |
| 2026-05-06 16:58 | 43.18671 | 11.63338 | 29922 ft | 439 kts | 323° |
| 2026-05-06 16:58 | 43.21449 | 11.61665 | 29913 ft | 449 kts | 334° |
| 2026-05-06 16:59 | 43.24514 | 11.60683 | 29933 ft | 459 kts | 345° |
| 2026-05-06 16:59 | 43.30899 | 11.60084 | 29930 ft | 459 kts | 350° |
| 2026-05-06 17:00 | 43.37271 | 11.59523 | 29932 ft | 459 kts | 349° |
| 2026-05-06 17:00 | 43.43629 | 11.58956 | 29937 ft | 460 kts | 350° |
| 2026-05-06 17:01 | 43.49933 | 11.58408 | 29939 ft | 454 kts | 349° |
| 2026-05-06 17:01 | 43.54713 | 11.57975 | 29939 ft | 455 kts | 349° |
| 2026-05-06 17:02 | 43.60940 | 11.57427 | 29939 ft | 455 kts | 350° |
| 2026-05-06 17:02 | 43.64893 | 11.57075 | 29948 ft | 456 kts | 350° |
| 2026-05-06 17:03 | 43.71187 | 11.56516 | 29913 ft | 452 kts | 350° |
| 2026-05-06 17:03 | 43.77408 | 11.55957 | 29919 ft | 453 kts | 350° |
| 2026-05-06 17:04 | 43.83694 | 11.55398 | 29929 ft | 453 kts | 350° |
| 2026-05-06 17:04 | 43.89983 | 11.54834 | 29926 ft | 453 kts | 350° |
| 2026-05-06 17:05 | 43.96273 | 11.54319 | 29908 ft | 455 kts | 354° |
| 2026-05-06 17:05 | 43.99428 | 11.54799 | 29914 ft | 464 kts | 6° |
| 2026-05-06 17:05 | 44.02498 | 11.56161 | 29920 ft | 471 kts | 19° |
| 2026-05-06 17:05 | 44.05393 | 11.58369 | 29926 ft | 478 kts | 31° |
| 2026-05-06 17:06 | 44.08220 | 11.60871 | 29921 ft | 486 kts | 30° |
| 2026-05-06 17:06 | 44.11141 | 11.63127 | 29852 ft | 473 kts | 19° |
| 2026-05-06 17:06 | 44.14209 | 11.64417 | 29873 ft | 448 kts | 6° |
| 2026-05-06 17:06 | 44.17206 | 11.65051 | 29859 ft | 427 kts | 0° |
| 2026-05-06 17:07 | 44.20060 | 11.65494 | 29587 ft | 400 kts | 360° |
| 2026-05-06 17:07 | 44.22791 | 11.66054 | 28810 ft | 394 kts | 4° |
| 2026-05-06 17:07 | 44.25401 | 11.66847 | 28114 ft | 385 kts | 5° |
| 2026-05-06 17:07 | 44.27987 | 11.67667 | 27398 ft | 375 kts | 3° |
| 2026-05-06 17:08 | 44.30510 | 11.68393 | 26681 ft | 368 kts | 3° |
| 2026-05-06 17:08 | 44.33004 | 11.69064 | 25987 ft | 362 kts | 3° |
| 2026-05-06 17:08 | 44.35457 | 11.69749 | 25309 ft | 356 kts | 4° |
| 2026-05-06 17:08 | 44.37859 | 11.70448 | 24657 ft | 350 kts | 4° |
| 2026-05-06 17:09 | 44.40223 | 11.71130 | 24036 ft | 344 kts | 4° |
| 2026-05-06 17:09 | 44.42541 | 11.71812 | 23479 ft | 339 kts | 7° |
| 2026-05-06 17:09 | 44.44797 | 11.72456 | 22797 ft | 332 kts | 3° |
| 2026-05-06 17:09 | 44.47052 | 11.73060 | 22055 ft | 329 kts | 4° |
| 2026-05-06 17:10 | 44.49289 | 11.73697 | 21364 ft | 325 kts | 4° |
| 2026-05-06 17:10 | 44.51484 | 11.74342 | 20704 ft | 321 kts | 4° |
| 2026-05-06 17:10 | 44.53652 | 11.74966 | 20064 ft | 317 kts | 4° |
| 2026-05-06 17:10 | 44.55806 | 11.75571 | 19419 ft | 313 kts | 4° |
| 2026-05-06 17:11 | 44.57925 | 11.76176 | 18805 ft | 310 kts | 4° |
| 2026-05-06 17:11 | 44.60031 | 11.76784 | 18202 ft | 307 kts | 4° |
| 2026-05-06 17:11 | 44.62113 | 11.77384 | 17517 ft | 305 kts | 4° |
| 2026-05-06 17:11 | 44.64157 | 11.77968 | 16859 ft | 302 kts | 4° |
| 2026-05-06 17:12 | 44.66200 | 11.78554 | 16228 ft | 299 kts | 4° |
| 2026-05-06 17:12 | 44.68235 | 11.79141 | 15617 ft | 297 kts | 4° |
| 2026-05-06 17:12 | 44.70248 | 11.79718 | 15005 ft | 295 kts | 4° |
| 2026-05-06 17:12 | 44.72246 | 11.80292 | 14410 ft | 292 kts | 5° |
| 2026-05-06 17:13 | 44.74236 | 11.80867 | 13834 ft | 290 kts | 5° |
| 2026-05-06 17:13 | 44.76202 | 11.81436 | 13230 ft | 288 kts | 5° |
| 2026-05-06 17:13 | 44.78156 | 11.82005 | 12650 ft | 285 kts | 6° |
| 2026-05-06 17:13 | 44.80092 | 11.82566 | 12066 ft | 282 kts | 6° |
| 2026-05-06 17:14 | 44.81978 | 11.83111 | 11514 ft | 279 kts | 6° |
| 2026-05-06 17:14 | 44.83859 | 11.83654 | 10969 ft | 276 kts | 6° |
| 2026-05-06 17:14 | 44.85733 | 11.84197 | 10450 ft | 273 kts | 5° |
| 2026-05-06 17:14 | 44.87580 | 11.84732 | 9924 ft | 270 kts | 5° |
| 2026-05-06 17:15 | 44.89409 | 11.85262 | 9375 ft | 268 kts | 5° |
| 2026-05-06 17:15 | 44.91226 | 11.85790 | 8827 ft | 264 kts | 5° |
| 2026-05-06 17:15 | 44.93012 | 11.86319 | 8340 ft | 262 kts | 9° |
| 2026-05-06 17:15 | 44.94777 | 11.86890 | 8218 ft | 261 kts | 9° |
| 2026-05-06 17:16 | 44.96535 | 11.87405 | 8202 ft | 257 kts | 8° |
| 2026-05-06 17:16 | 44.98281 | 11.87897 | 8130 ft | 256 kts | 8° |
| 2026-05-06 17:16 | 45.00028 | 11.88402 | 8020 ft | 255 kts | 8° |
| 2026-05-06 17:16 | 45.01722 | 11.88902 | 8072 ft | 242 kts | 8° |
| 2026-05-06 17:17 | 45.03360 | 11.89380 | 7868 ft | 242 kts | 8° |
| 2026-05-06 17:17 | 45.05013 | 11.89859 | 7642 ft | 243 kts | 8° |
| 2026-05-06 17:17 | 45.06661 | 11.90307 | 7265 ft | 240 kts | 5° |
| 2026-05-06 17:17 | 45.08307 | 11.90768 | 6754 ft | 241 kts | 6° |
| 2026-05-06 17:18 | 45.09939 | 11.91252 | 6321 ft | 239 kts | 6° |
| 2026-05-06 17:18 | 45.11540 | 11.91726 | 5984 ft | 231 kts | 6° |
| 2026-05-06 17:18 | 45.13052 | 11.92174 | 5755 ft | 220 kts | 6° |
| 2026-05-06 17:18 | 45.14526 | 11.92602 | 5509 ft | 211 kts | 5° |
| 2026-05-06 17:19 | 45.15933 | 11.93009 | 5292 ft | 202 kts | 5° |
| 2026-05-06 17:19 | 45.17262 | 11.93404 | 5050 ft | 185 kts | 6° |
| 2026-05-06 17:19 | 45.18428 | 11.94141 | 4668 ft | 191 kts | 34° |
| 2026-05-06 17:19 | 45.19345 | 11.95431 | 4588 ft | 183 kts | 47° |
| 2026-05-06 17:20 | 45.20288 | 11.96711 | 4538 ft | 185 kts | 43° |
| 2026-05-06 17:20 | 45.21157 | 11.98004 | 4443 ft | 182 kts | 50° |
| 2026-05-06 17:20 | 45.21893 | 11.99501 | 4343 ft | 187 kts | 60° |
| 2026-05-06 17:20 | 45.22415 | 12.01091 | 4222 ft | 169 kts | 71° |
| 2026-05-06 17:21 | 45.23059 | 12.02319 | 3985 ft | 160 kts | 20° |
| 2026-05-06 17:21 | 45.24170 | 12.02745 | 3850 ft | 165 kts | 18° |
| 2026-05-06 17:21 | 45.25230 | 12.03166 | 3539 ft | 155 kts | 18° |
| 2026-05-06 17:21 | 45.26124 | 12.03915 | 3367 ft | 157 kts | 46° |
| 2026-05-06 17:22 | 45.26880 | 12.05041 | 3391 ft | 160 kts | 40° |
| 2026-05-06 17:22 | 45.27752 | 12.06038 | 3407 ft | 162 kts | 41° |
| 2026-05-06 17:22 | 45.28538 | 12.07047 | 3361 ft | 150 kts | 43° |
| 2026-05-06 17:22 | 45.29351 | 12.08089 | 3320 ft | 162 kts | 42° |
| 2026-05-06 17:23 | 45.30191 | 12.09148 | 3265 ft | 156 kts | 43° |
| 2026-05-06 17:23 | 45.30963 | 12.10139 | 3182 ft | 153 kts | 42° |
| 2026-05-06 17:23 | 45.31782 | 12.11189 | 3127 ft | 159 kts | 43° |
| 2026-05-06 17:23 | 45.32569 | 12.12199 | 3012 ft | 153 kts | 43° |
| 2026-05-06 17:24 | 45.33381 | 12.13228 | 2992 ft | 159 kts | 43° |
| 2026-05-06 17:24 | 45.34221 | 12.14306 | 3001 ft | 168 kts | 43° |
| 2026-05-06 17:24 | 45.35092 | 12.15424 | 3000 ft | 168 kts | 43° |
| 2026-05-06 17:24 | 45.35967 | 12.16533 | 2992 ft | 169 kts | 42° |
| 2026-05-06 17:25 | 45.36842 | 12.17652 | 2992 ft | 170 kts | 43° |
| 2026-05-06 17:25 | 45.37718 | 12.18777 | 3001 ft | 168 kts | 43° |
| 2026-05-06 17:25 | 45.38586 | 12.19893 | 2857 ft | 172 kts | 43° |
| 2026-05-06 17:25 | 45.39451 | 12.21000 | 2637 ft | 167 kts | 43° |
| 2026-05-06 17:26 | 45.40299 | 12.22081 | 2423 ft | 165 kts | 43° |
| 2026-05-06 17:26 | 45.41170 | 12.23193 | 2181 ft | 164 kts | 44° |
| 2026-05-06 17:26 | 45.42007 | 12.24266 | 1983 ft | 162 kts | 44° |
| 2026-05-06 17:26 | 45.42817 | 12.25307 | 1759 ft | 157 kts | 44° |
| 2026-05-06 17:27 | 45.43617 | 12.26334 | 1569 ft | 149 kts | 45° |
| 2026-05-06 17:27 | 45.44393 | 12.27341 | 1378 ft | 150 kts | 46° |
| 2026-05-06 17:27 | 45.45152 | 12.28329 | 1160 ft | 151 kts | 46° |
| 2026-05-06 17:27 | 45.45936 | 12.29326 | 949 ft | 148 kts | 44° |
| 2026-05-06 17:28 | 45.46680 | 12.30270 | 759 ft | 143 kts | 45° |
| 2026-05-06 17:28 | 45.47414 | 12.31209 | 579 ft | 141 kts | 44° |
| 2026-05-06 17:28 | 45.48141 | 12.32134 | 379 ft | 137 kts | 45° |
| 2026-05-06 17:28 | 45.48850 | 12.33043 | 210 ft | 137 kts | 46° |
| 2026-05-06 17:29 | 45.49568 | 12.33968 | 36 ft | 139 kts | 45° |
| 2026-05-06 17:29 | 45.50206 | 12.34794 | 20 ft | 103 kts | 42° |
| 2026-05-06 17:29 | 45.50597 | 12.35292 | 19 ft | 48 kts | 38° |
| 2026-05-06 17:29 | 45.50839 | 12.35437 | 21 ft | 29 kts | 12° |